sensor_id;sensor_type;location;lat;lon;timestamp;P1;durP1;ratioP1;P2;durP2;ratioP2
42616;SDS011;28250;52.320;0.360;2023-05-07T00:00:12;13.02;;;8.38;;
42616;SDS011;28250;52.320;0.360;2023-05-07T00:02:40;17.02;;;8.80;;
42616;SDS011;28250;52.320;0.360;2023-05-07T00:05:07;14.35;;;8.45;;
42616;SDS011;28250;52.320;0.360;2023-05-07T00:07:33;11.02;;;7.82;;
42616;SDS011;28250;52.320;0.360;2023-05-07T00:09:59;13.23;;;7.93;;
42616;SDS011;28250;52.320;0.360;2023-05-07T00:12:25;14.00;;;8.45;;
42616;SDS011;28250;52.320;0.360;2023-05-07T00:14:51;11.95;;;8.00;;
42616;SDS011;28250;52.320;0.360;2023-05-07T00:17:17;14.77;;;8.35;;
42616;SDS011;28250;52.320;0.360;2023-05-07T00:19:43;13.93;;;8.55;;
42616;SDS011;28250;52.320;0.360;2023-05-07T00:22:09;13.13;;;8.55;;
42616;SDS011;28250;52.320;0.360;2023-05-07T00:24:35;13.63;;;8.52;;
42616;SDS011;28250;52.320;0.360;2023-05-07T00:27:01;12.02;;;7.95;;
42616;SDS011;28250;52.320;0.360;2023-05-07T00:29:27;9.15;;;6.72;;
42616;SDS011;28250;52.320;0.360;2023-05-07T00:31:53;17.02;;;8.20;;
42616;SDS011;28250;52.320;0.360;2023-05-07T00:34:20;11.77;;;7.73;;
42616;SDS011;28250;52.320;0.360;2023-05-07T00:36:46;14.30;;;8.45;;
42616;SDS011;28250;52.320;0.360;2023-05-07T00:39:12;10.70;;;6.95;;
42616;SDS011;28250;52.320;0.360;2023-05-07T00:41:38;10.63;;;7.78;;
42616;SDS011;28250;52.320;0.360;2023-05-07T00:44:04;12.43;;;7.68;;
42616;SDS011;28250;52.320;0.360;2023-05-07T00:46:30;11.13;;;7.53;;
42616;SDS011;28250;52.320;0.360;2023-05-07T00:48:57;12.05;;;8.10;;
42616;SDS011;28250;52.320;0.360;2023-05-07T00:51:25;13.10;;;7.90;;
42616;SDS011;28250;52.320;0.360;2023-05-07T00:53:55;12.80;;;8.25;;
42616;SDS011;28250;52.320;0.360;2023-05-07T00:56:21;10.82;;;7.63;;
42616;SDS011;28250;52.320;0.360;2023-05-07T00:58:48;11.50;;;7.57;;
42616;SDS011;28250;52.320;0.360;2023-05-07T01:01:14;11.60;;;7.85;;
42616;SDS011;28250;52.320;0.360;2023-05-07T01:03:42;13.95;;;7.60;;
42616;SDS011;28250;52.320;0.360;2023-05-07T01:06:08;13.83;;;8.37;;
42616;SDS011;28250;52.320;0.360;2023-05-07T01:08:38;11.93;;;7.65;;
42616;SDS011;28250;52.320;0.360;2023-05-07T01:11:05;14.13;;;8.07;;
42616;SDS011;28250;52.320;0.360;2023-05-07T01:13:33;17.38;;;8.18;;
42616;SDS011;28250;52.320;0.360;2023-05-07T01:16:02;11.43;;;7.03;;
42616;SDS011;28250;52.320;0.360;2023-05-07T01:18:29;10.80;;;7.10;;
42616;SDS011;28250;52.320;0.360;2023-05-07T01:20:56;10.45;;;7.20;;
42616;SDS011;28250;52.320;0.360;2023-05-07T01:23:26;11.45;;;7.25;;
42616;SDS011;28250;52.320;0.360;2023-05-07T01:25:53;12.13;;;7.43;;
42616;SDS011;28250;52.320;0.360;2023-05-07T01:28:22;15.13;;;8.85;;
42616;SDS011;28250;52.320;0.360;2023-05-07T01:30:53;14.93;;;8.52;;
42616;SDS011;28250;52.320;0.360;2023-05-07T01:33:25;10.97;;;7.70;;
42616;SDS011;28250;52.320;0.360;2023-05-07T01:35:56;15.18;;;8.38;;
42616;SDS011;28250;52.320;0.360;2023-05-07T01:38:26;14.10;;;7.60;;
42616;SDS011;28250;52.320;0.360;2023-05-07T01:40:53;12.27;;;7.88;;
42616;SDS011;28250;52.320;0.360;2023-05-07T01:43:20;11.82;;;7.18;;
42616;SDS011;28250;52.320;0.360;2023-05-07T01:45:46;14.45;;;7.30;;
42616;SDS011;28250;52.320;0.360;2023-05-07T01:48:14;12.73;;;7.63;;
42616;SDS011;28250;52.320;0.360;2023-05-07T01:50:44;13.20;;;7.40;;
42616;SDS011;28250;52.320;0.360;2023-05-07T01:53:10;16.10;;;8.30;;
42616;SDS011;28250;52.320;0.360;2023-05-07T01:55:36;12.07;;;8.25;;
42616;SDS011;28250;52.320;0.360;2023-05-07T01:58:03;13.23;;;7.75;;
42616;SDS011;28250;52.320;0.360;2023-05-07T02:00:29;12.05;;;7.53;;
42616;SDS011;28250;52.320;0.360;2023-05-07T02:02:57;13.15;;;7.75;;
42616;SDS011;28250;52.320;0.360;2023-05-07T02:05:32;14.27;;;7.47;;
42616;SDS011;28250;52.320;0.360;2023-05-07T02:08:04;14.55;;;8.25;;
42616;SDS011;28250;52.320;0.360;2023-05-07T02:10:30;16.10;;;9.00;;
42616;SDS011;28250;52.320;0.360;2023-05-07T02:12:58;16.63;;;7.93;;
42616;SDS011;28250;52.320;0.360;2023-05-07T02:15:27;15.75;;;9.07;;
42616;SDS011;28250;52.320;0.360;2023-05-07T02:18:04;18.73;;;9.10;;
42616;SDS011;28250;52.320;0.360;2023-05-07T02:20:34;13.95;;;8.15;;
42616;SDS011;28250;52.320;0.360;2023-05-07T02:23:01;12.70;;;8.48;;
42616;SDS011;28250;52.320;0.360;2023-05-07T02:25:28;14.45;;;8.13;;
42616;SDS011;28250;52.320;0.360;2023-05-07T02:27:55;17.25;;;9.35;;
42616;SDS011;28250;52.320;0.360;2023-05-07T02:30:28;13.80;;;9.35;;
42616;SDS011;28250;52.320;0.360;2023-05-07T02:32:56;14.02;;;8.38;;
42616;SDS011;28250;52.320;0.360;2023-05-07T02:35:23;13.70;;;8.35;;
42616;SDS011;28250;52.320;0.360;2023-05-07T02:37:53;15.35;;;8.75;;
42616;SDS011;28250;52.320;0.360;2023-05-07T02:40:19;17.30;;;9.23;;
42616;SDS011;28250;52.320;0.360;2023-05-07T02:42:45;14.70;;;8.60;;
42616;SDS011;28250;52.320;0.360;2023-05-07T02:45:12;15.82;;;8.38;;
42616;SDS011;28250;52.320;0.360;2023-05-07T02:47:38;14.65;;;7.80;;
42616;SDS011;28250;52.320;0.360;2023-05-07T02:50:04;15.18;;;8.98;;
42616;SDS011;28250;52.320;0.360;2023-05-07T02:52:31;17.10;;;8.88;;
42616;SDS011;28250;52.320;0.360;2023-05-07T02:54:57;19.27;;;9.35;;
42616;SDS011;28250;52.320;0.360;2023-05-07T02:57:23;16.25;;;9.45;;
42616;SDS011;28250;52.320;0.360;2023-05-07T02:59:49;17.73;;;8.98;;
42616;SDS011;28250;52.320;0.360;2023-05-07T03:02:17;17.92;;;9.25;;
42616;SDS011;28250;52.320;0.360;2023-05-07T03:04:43;19.73;;;9.10;;
42616;SDS011;28250;52.320;0.360;2023-05-07T03:07:09;16.45;;;10.00;;
42616;SDS011;28250;52.320;0.360;2023-05-07T03:09:35;19.58;;;9.38;;
42616;SDS011;28250;52.320;0.360;2023-05-07T03:12:01;17.17;;;8.95;;
42616;SDS011;28250;52.320;0.360;2023-05-07T03:14:27;17.88;;;9.32;;
42616;SDS011;28250;52.320;0.360;2023-05-07T03:16:53;15.73;;;9.27;;
42616;SDS011;28250;52.320;0.360;2023-05-07T03:19:20;14.13;;;8.23;;
42616;SDS011;28250;52.320;0.360;2023-05-07T03:21:46;17.27;;;9.00;;
42616;SDS011;28250;52.320;0.360;2023-05-07T03:24:12;16.45;;;8.23;;
42616;SDS011;28250;52.320;0.360;2023-05-07T03:26:38;15.35;;;9.30;;
42616;SDS011;28250;52.320;0.360;2023-05-07T03:29:04;18.15;;;9.75;;
42616;SDS011;28250;52.320;0.360;2023-05-07T03:31:30;18.67;;;8.88;;
42616;SDS011;28250;52.320;0.360;2023-05-07T03:33:57;14.80;;;8.43;;
42616;SDS011;28250;52.320;0.360;2023-05-07T03:36:25;17.23;;;9.07;;
42616;SDS011;28250;52.320;0.360;2023-05-07T03:38:53;16.60;;;8.65;;
42616;SDS011;28250;52.320;0.360;2023-05-07T03:41:22;16.38;;;8.52;;
42616;SDS011;28250;52.320;0.360;2023-05-07T03:43:48;19.02;;;9.05;;
42616;SDS011;28250;52.320;0.360;2023-05-07T03:46:14;20.15;;;8.48;;
42616;SDS011;28250;52.320;0.360;2023-05-07T03:48:41;16.38;;;8.68;;
42616;SDS011;28250;52.320;0.360;2023-05-07T03:51:07;16.10;;;8.90;;
42616;SDS011;28250;52.320;0.360;2023-05-07T03:53:33;13.25;;;7.82;;
42616;SDS011;28250;52.320;0.360;2023-05-07T03:56:00;15.07;;;7.75;;
42616;SDS011;28250;52.320;0.360;2023-05-07T03:58:28;16.08;;;8.32;;
42616;SDS011;28250;52.320;0.360;2023-05-07T04:00:58;14.23;;;8.15;;
42616;SDS011;28250;52.320;0.360;2023-05-07T04:03:27;14.38;;;7.93;;
42616;SDS011;28250;52.320;0.360;2023-05-07T04:05:56;16.08;;;7.80;;
42616;SDS011;28250;52.320;0.360;2023-05-07T04:08:22;15.77;;;7.72;;
42616;SDS011;28250;52.320;0.360;2023-05-07T04:10:55;14.52;;;8.27;;
42616;SDS011;28250;52.320;0.360;2023-05-07T04:13:24;14.35;;;7.75;;
42616;SDS011;28250;52.320;0.360;2023-05-07T04:15:51;14.73;;;7.90;;
42616;SDS011;28250;52.320;0.360;2023-05-07T04:18:19;11.68;;;7.43;;
42616;SDS011;28250;52.320;0.360;2023-05-07T04:23:14;10.90;;;6.57;;
42616;SDS011;28250;52.320;0.360;2023-05-07T04:25:41;13.18;;;7.38;;
42616;SDS011;28250;52.320;0.360;2023-05-07T04:28:15;14.50;;;8.60;;
42616;SDS011;28250;52.320;0.360;2023-05-07T04:30:42;14.02;;;7.60;;
42616;SDS011;28250;52.320;0.360;2023-05-07T04:38:04;13.63;;;7.72;;
42616;SDS011;28250;52.320;0.360;2023-05-07T04:40:31;12.03;;;7.77;;
42616;SDS011;28250;52.320;0.360;2023-05-07T04:42:57;14.18;;;8.10;;
42616;SDS011;28250;52.320;0.360;2023-05-07T04:45:23;14.40;;;7.65;;
42616;SDS011;28250;52.320;0.360;2023-05-07T04:47:52;12.80;;;7.60;;
42616;SDS011;28250;52.320;0.360;2023-05-07T04:50:18;17.40;;;8.40;;
42616;SDS011;28250;52.320;0.360;2023-05-07T04:52:46;15.50;;;8.48;;
42616;SDS011;28250;52.320;0.360;2023-05-07T04:55:13;16.92;;;8.60;;
42616;SDS011;28250;52.320;0.360;2023-05-07T04:57:40;15.68;;;8.73;;
42616;SDS011;28250;52.320;0.360;2023-05-07T05:00:08;16.23;;;8.43;;
42616;SDS011;28250;52.320;0.360;2023-05-07T05:02:36;15.93;;;8.88;;
42616;SDS011;28250;52.320;0.360;2023-05-07T05:05:02;20.20;;;9.65;;
42616;SDS011;28250;52.320;0.360;2023-05-07T05:07:29;14.13;;;8.63;;
42616;SDS011;28250;52.320;0.360;2023-05-07T05:09:55;18.02;;;9.70;;
42616;SDS011;28250;52.320;0.360;2023-05-07T05:12:23;16.02;;;8.82;;
42616;SDS011;28250;52.320;0.360;2023-05-07T05:14:50;15.88;;;7.53;;
42616;SDS011;28250;52.320;0.360;2023-05-07T05:17:16;16.48;;;8.30;;
42616;SDS011;28250;52.320;0.360;2023-05-07T05:19:42;14.63;;;8.30;;
42616;SDS011;28250;52.320;0.360;2023-05-07T05:22:08;15.88;;;7.82;;
42616;SDS011;28250;52.320;0.360;2023-05-07T05:24:34;15.20;;;8.13;;
42616;SDS011;28250;52.320;0.360;2023-05-07T05:27:00;12.85;;;7.40;;
42616;SDS011;28250;52.320;0.360;2023-05-07T05:29:29;14.93;;;8.25;;
42616;SDS011;28250;52.320;0.360;2023-05-07T05:31:57;16.25;;;8.00;;
42616;SDS011;28250;52.320;0.360;2023-05-07T05:34:23;14.45;;;6.97;;
42616;SDS011;28250;52.320;0.360;2023-05-07T05:36:50;14.88;;;8.43;;
42616;SDS011;28250;52.320;0.360;2023-05-07T05:39:17;15.43;;;8.35;;
42616;SDS011;28250;52.320;0.360;2023-05-07T05:41:43;15.70;;;8.45;;
42616;SDS011;28250;52.320;0.360;2023-05-07T05:44:11;14.68;;;7.97;;
42616;SDS011;28250;52.320;0.360;2023-05-07T05:46:39;15.40;;;8.43;;
42616;SDS011;28250;52.320;0.360;2023-05-07T05:49:05;19.15;;;8.65;;
42616;SDS011;28250;52.320;0.360;2023-05-07T05:51:32;16.05;;;7.65;;
42616;SDS011;28250;52.320;0.360;2023-05-07T05:53:58;12.25;;;7.65;;
42616;SDS011;28250;52.320;0.360;2023-05-07T05:56:24;15.50;;;7.90;;
42616;SDS011;28250;52.320;0.360;2023-05-07T05:58:51;16.27;;;8.07;;
42616;SDS011;28250;52.320;0.360;2023-05-07T06:01:17;14.95;;;8.10;;
42616;SDS011;28250;52.320;0.360;2023-05-07T06:03:44;15.18;;;8.73;;
42616;SDS011;28250;52.320;0.360;2023-05-07T06:06:13;14.10;;;8.60;;
42616;SDS011;28250;52.320;0.360;2023-05-07T06:08:41;14.88;;;8.68;;
42616;SDS011;28250;52.320;0.360;2023-05-07T06:11:08;14.70;;;8.32;;
42616;SDS011;28250;52.320;0.360;2023-05-07T06:13:37;16.90;;;9.25;;
42616;SDS011;28250;52.320;0.360;2023-05-07T06:16:03;14.43;;;8.48;;
42616;SDS011;28250;52.320;0.360;2023-05-07T06:18:29;16.20;;;8.63;;
42616;SDS011;28250;52.320;0.360;2023-05-07T06:20:55;15.88;;;7.97;;
42616;SDS011;28250;52.320;0.360;2023-05-07T06:23:25;17.52;;;8.90;;
42616;SDS011;28250;52.320;0.360;2023-05-07T06:25:51;16.83;;;8.93;;
42616;SDS011;28250;52.320;0.360;2023-05-07T06:28:21;13.68;;;8.13;;
42616;SDS011;28250;52.320;0.360;2023-05-07T06:30:47;14.60;;;8.35;;
42616;SDS011;28250;52.320;0.360;2023-05-07T06:33:16;15.52;;;8.57;;
42616;SDS011;28250;52.320;0.360;2023-05-07T06:35:42;15.10;;;7.80;;
42616;SDS011;28250;52.320;0.360;2023-05-07T06:38:08;16.23;;;7.80;;
42616;SDS011;28250;52.320;0.360;2023-05-07T06:40:34;16.48;;;9.00;;
42616;SDS011;28250;52.320;0.360;2023-05-07T06:43:00;18.38;;;8.77;;
42616;SDS011;28250;52.320;0.360;2023-05-07T06:45:34;15.15;;;8.02;;
42616;SDS011;28250;52.320;0.360;2023-05-07T06:48:00;13.73;;;7.88;;
42616;SDS011;28250;52.320;0.360;2023-05-07T06:50:29;16.75;;;8.75;;
42616;SDS011;28250;52.320;0.360;2023-05-07T06:52:56;17.88;;;9.48;;
42616;SDS011;28250;52.320;0.360;2023-05-07T06:55:22;17.40;;;8.80;;
42616;SDS011;28250;52.320;0.360;2023-05-07T06:57:49;18.20;;;9.50;;
42616;SDS011;28250;52.320;0.360;2023-05-07T07:00:16;11.95;;;7.25;;
42616;SDS011;28250;52.320;0.360;2023-05-07T07:02:49;17.50;;;8.80;;
42616;SDS011;28250;52.320;0.360;2023-05-07T07:05:18;15.50;;;8.65;;
42616;SDS011;28250;52.320;0.360;2023-05-07T07:07:44;14.73;;;8.63;;
42616;SDS011;28250;52.320;0.360;2023-05-07T07:10:20;16.42;;;8.10;;
42616;SDS011;28250;52.320;0.360;2023-05-07T07:12:48;17.27;;;8.27;;
42616;SDS011;28250;52.320;0.360;2023-05-07T07:15:15;18.25;;;8.02;;
42616;SDS011;28250;52.320;0.360;2023-05-07T07:17:42;19.48;;;9.10;;
42616;SDS011;28250;52.320;0.360;2023-05-07T07:20:08;17.80;;;8.85;;
42616;SDS011;28250;52.320;0.360;2023-05-07T07:22:35;15.82;;;8.32;;
42616;SDS011;28250;52.320;0.360;2023-05-07T07:25:01;15.75;;;8.55;;
42616;SDS011;28250;52.320;0.360;2023-05-07T07:27:28;19.73;;;9.43;;
42616;SDS011;28250;52.320;0.360;2023-05-07T07:29:54;14.25;;;8.43;;
42616;SDS011;28250;52.320;0.360;2023-05-07T07:32:20;18.70;;;8.40;;
42616;SDS011;28250;52.320;0.360;2023-05-07T07:34:46;13.63;;;8.00;;
42616;SDS011;28250;52.320;0.360;2023-05-07T07:37:12;14.23;;;8.20;;
42616;SDS011;28250;52.320;0.360;2023-05-07T07:39:38;16.38;;;8.38;;
42616;SDS011;28250;52.320;0.360;2023-05-07T07:42:06;13.35;;;8.13;;
42616;SDS011;28250;52.320;0.360;2023-05-07T07:44:32;17.50;;;9.13;;
42616;SDS011;28250;52.320;0.360;2023-05-07T07:47:04;13.68;;;7.78;;
42616;SDS011;28250;52.320;0.360;2023-05-07T07:49:30;18.07;;;9.00;;
42616;SDS011;28250;52.320;0.360;2023-05-07T07:52:01;15.05;;;8.43;;
42616;SDS011;28250;52.320;0.360;2023-05-07T07:54:28;12.75;;;7.75;;
42616;SDS011;28250;52.320;0.360;2023-05-07T07:56:55;12.80;;;7.45;;
42616;SDS011;28250;52.320;0.360;2023-05-07T07:59:21;13.90;;;7.93;;
42616;SDS011;28250;52.320;0.360;2023-05-07T08:01:49;11.88;;;7.65;;
42616;SDS011;28250;52.320;0.360;2023-05-07T08:04:17;14.35;;;6.82;;
42616;SDS011;28250;52.320;0.360;2023-05-07T08:06:44;11.60;;;6.82;;
42616;SDS011;28250;52.320;0.360;2023-05-07T08:09:10;10.98;;;6.95;;
42616;SDS011;28250;52.320;0.360;2023-05-07T08:11:38;11.82;;;7.18;;
42616;SDS011;28250;52.320;0.360;2023-05-07T08:14:05;11.93;;;6.78;;
42616;SDS011;28250;52.320;0.360;2023-05-07T08:16:31;9.23;;;6.20;;
42616;SDS011;28250;52.320;0.360;2023-05-07T08:18:59;9.20;;;5.85;;
42616;SDS011;28250;52.320;0.360;2023-05-07T08:21:25;11.23;;;6.32;;
42616;SDS011;28250;52.320;0.360;2023-05-07T08:23:51;9.20;;;5.72;;
42616;SDS011;28250;52.320;0.360;2023-05-07T08:26:17;9.20;;;5.93;;
42616;SDS011;28250;52.320;0.360;2023-05-07T08:28:44;11.10;;;6.63;;
42616;SDS011;28250;52.320;0.360;2023-05-07T08:31:10;13.32;;;6.28;;
42616;SDS011;28250;52.320;0.360;2023-05-07T08:33:39;9.48;;;5.82;;
42616;SDS011;28250;52.320;0.360;2023-05-07T08:36:05;9.65;;;5.78;;
42616;SDS011;28250;52.320;0.360;2023-05-07T08:38:31;8.55;;;5.90;;
42616;SDS011;28250;52.320;0.360;2023-05-07T08:40:57;9.90;;;6.85;;
42616;SDS011;28250;52.320;0.360;2023-05-07T08:43:26;10.80;;;6.60;;
42616;SDS011;28250;52.320;0.360;2023-05-07T08:45:53;11.55;;;6.38;;
42616;SDS011;28250;52.320;0.360;2023-05-07T08:48:24;11.10;;;6.00;;
42616;SDS011;28250;52.320;0.360;2023-05-07T08:51:02;11.43;;;7.45;;
42616;SDS011;28250;52.320;0.360;2023-05-07T08:53:29;11.13;;;6.75;;
42616;SDS011;28250;52.320;0.360;2023-05-07T08:55:56;11.70;;;6.80;;
42616;SDS011;28250;52.320;0.360;2023-05-07T08:58:22;10.50;;;7.13;;
42616;SDS011;28250;52.320;0.360;2023-05-07T09:00:49;10.98;;;6.03;;
42616;SDS011;28250;52.320;0.360;2023-05-07T09:03:17;10.93;;;6.65;;
42616;SDS011;28250;52.320;0.360;2023-05-07T09:05:47;11.57;;;7.18;;
42616;SDS011;28250;52.320;0.360;2023-05-07T09:08:15;7.90;;;5.75;;
42616;SDS011;28250;52.320;0.360;2023-05-07T09:10:42;11.10;;;6.55;;
42616;SDS011;28250;52.320;0.360;2023-05-07T09:13:08;12.15;;;6.57;;
42616;SDS011;28250;52.320;0.360;2023-05-07T09:15:38;9.48;;;6.30;;
42616;SDS011;28250;52.320;0.360;2023-05-07T09:18:04;9.75;;;6.40;;
42616;SDS011;28250;52.320;0.360;2023-05-07T09:20:33;8.38;;;5.88;;
42616;SDS011;28250;52.320;0.360;2023-05-07T09:23:00;9.32;;;6.35;;
42616;SDS011;28250;52.320;0.360;2023-05-07T09:27:56;9.95;;;5.78;;
42616;SDS011;28250;52.320;0.360;2023-05-07T09:30:26;10.23;;;6.20;;
42616;SDS011;28250;52.320;0.360;2023-05-07T09:32:58;10.40;;;6.22;;
42616;SDS011;28250;52.320;0.360;2023-05-07T09:35:29;8.52;;;5.47;;
42616;SDS011;28250;52.320;0.360;2023-05-07T09:38:00;9.55;;;6.28;;
42616;SDS011;28250;52.320;0.360;2023-05-07T09:40:29;8.45;;;6.18;;
42616;SDS011;28250;52.320;0.360;2023-05-07T09:43:10;8.95;;;5.28;;
42616;SDS011;28250;52.320;0.360;2023-05-07T09:45:39;8.40;;;5.95;;
42616;SDS011;28250;52.320;0.360;2023-05-07T09:48:07;8.57;;;5.90;;
42616;SDS011;28250;52.320;0.360;2023-05-07T09:50:40;10.43;;;6.55;;
42616;SDS011;28250;52.320;0.360;2023-05-07T09:53:17;10.82;;;6.50;;
42616;SDS011;28250;52.320;0.360;2023-05-07T09:55:44;11.25;;;6.80;;
42616;SDS011;28250;52.320;0.360;2023-05-07T09:58:12;11.80;;;6.45;;
42616;SDS011;28250;52.320;0.360;2023-05-07T10:00:40;10.80;;;6.55;;
42616;SDS011;28250;52.320;0.360;2023-05-07T10:03:11;8.98;;;6.25;;
42616;SDS011;28250;52.320;0.360;2023-05-07T10:05:50;10.65;;;6.88;;
42616;SDS011;28250;52.320;0.360;2023-05-07T10:08:18;12.45;;;6.97;;
42616;SDS011;28250;52.320;0.360;2023-05-07T10:10:47;9.13;;;6.63;;
42616;SDS011;28250;52.320;0.360;2023-05-07T10:13:21;9.18;;;6.85;;
42616;SDS011;28250;52.320;0.360;2023-05-07T10:15:50;11.30;;;6.35;;
42616;SDS011;28250;52.320;0.360;2023-05-07T10:18:19;11.40;;;6.75;;
42616;SDS011;28250;52.320;0.360;2023-05-07T10:21:07;7.93;;;5.85;;
42616;SDS011;28250;52.320;0.360;2023-05-07T10:23:37;8.93;;;6.47;;
42616;SDS011;28250;52.320;0.360;2023-05-07T10:26:06;9.40;;;6.63;;
42616;SDS011;28250;52.320;0.360;2023-05-07T10:28:35;10.40;;;6.88;;
42616;SDS011;28250;52.320;0.360;2023-05-07T10:31:28;9.55;;;6.47;;
42616;SDS011;28250;52.320;0.360;2023-05-07T10:34:09;8.85;;;6.43;;
42616;SDS011;28250;52.320;0.360;2023-05-07T10:36:40;10.32;;;6.55;;
42616;SDS011;28250;52.320;0.360;2023-05-07T10:41:35;8.88;;;5.80;;
42616;SDS011;28250;52.320;0.360;2023-05-07T10:44:02;9.75;;;6.00;;
42616;SDS011;28250;52.320;0.360;2023-05-07T10:46:31;9.73;;;6.40;;
42616;SDS011;28250;52.320;0.360;2023-05-07T10:49:09;11.00;;;6.90;;
42616;SDS011;28250;52.320;0.360;2023-05-07T10:51:42;8.68;;;6.90;;
42616;SDS011;28250;52.320;0.360;2023-05-07T10:54:22;8.73;;;6.55;;
42616;SDS011;28250;52.320;0.360;2023-05-07T10:57:13;9.30;;;6.25;;
42616;SDS011;28250;52.320;0.360;2023-05-07T11:05:26;7.85;;;6.40;;
42616;SDS011;28250;52.320;0.360;2023-05-07T11:08:18;8.98;;;5.50;;
42616;SDS011;28250;52.320;0.360;2023-05-07T11:11:02;9.05;;;6.10;;
42616;SDS011;28250;52.320;0.360;2023-05-07T11:13:44;7.82;;;6.10;;
42616;SDS011;28250;52.320;0.360;2023-05-07T11:16:27;6.85;;;5.68;;
42616;SDS011;28250;52.320;0.360;2023-05-07T11:19:19;5.95;;;4.38;;
42616;SDS011;28250;52.320;0.360;2023-05-07T11:22:53;6.07;;;4.63;;
42616;SDS011;28250;52.320;0.360;2023-05-07T11:25:35;5.13;;;4.63;;
42616;SDS011;28250;52.320;0.360;2023-05-07T11:28:09;4.63;;;3.88;;
42616;SDS011;28250;52.320;0.360;2023-05-07T11:30:41;4.25;;;3.83;;
42616;SDS011;28250;52.320;0.360;2023-05-07T11:33:10;4.90;;;3.95;;
42616;SDS011;28250;52.320;0.360;2023-05-07T11:35:37;4.68;;;3.92;;
42616;SDS011;28250;52.320;0.360;2023-05-07T11:38:07;9.27;;;5.03;;
42616;SDS011;28250;52.320;0.360;2023-05-07T11:40:34;4.80;;;4.00;;
42616;SDS011;28250;52.320;0.360;2023-05-07T11:43:14;6.20;;;3.65;;
42616;SDS011;28250;52.320;0.360;2023-05-07T11:45:40;4.00;;;3.60;;
42616;SDS011;28250;52.320;0.360;2023-05-07T11:48:06;6.55;;;4.97;;
42616;SDS011;28250;52.320;0.360;2023-05-07T11:50:32;7.25;;;4.63;;
42616;SDS011;28250;52.320;0.360;2023-05-07T11:52:58;5.68;;;4.22;;
42616;SDS011;28250;52.320;0.360;2023-05-07T11:55:24;5.78;;;4.53;;
42616;SDS011;28250;52.320;0.360;2023-05-07T11:57:51;4.90;;;4.15;;
42616;SDS011;28250;52.320;0.360;2023-05-07T12:00:17;5.07;;;4.57;;
42616;SDS011;28250;52.320;0.360;2023-05-07T12:02:45;5.60;;;3.97;;
42616;SDS011;28250;52.320;0.360;2023-05-07T12:05:11;4.50;;;3.03;;
42616;SDS011;28250;52.320;0.360;2023-05-07T12:07:37;5.72;;;3.45;;
42616;SDS011;28250;52.320;0.360;2023-05-07T12:10:04;5.22;;;2.78;;
42616;SDS011;28250;52.320;0.360;2023-05-07T12:12:37;3.80;;;2.70;;
42616;SDS011;28250;52.320;0.360;2023-05-07T12:15:07;2.35;;;2.10;;
42616;SDS011;28250;52.320;0.360;2023-05-07T12:17:34;2.47;;;2.28;;
42616;SDS011;28250;52.320;0.360;2023-05-07T12:20:00;2.57;;;2.33;;
42616;SDS011;28250;52.320;0.360;2023-05-07T12:22:27;4.20;;;2.53;;
42616;SDS011;28250;52.320;0.360;2023-05-07T12:24:56;2.83;;;2.42;;
42616;SDS011;28250;52.320;0.360;2023-05-07T12:27:24;3.28;;;2.60;;
42616;SDS011;28250;52.320;0.360;2023-05-07T12:29:51;2.90;;;2.58;;
42616;SDS011;28250;52.320;0.360;2023-05-07T12:32:18;3.17;;;2.10;;
42616;SDS011;28250;52.320;0.360;2023-05-07T12:34:46;2.40;;;2.20;;
42616;SDS011;28250;52.320;0.360;2023-05-07T12:37:22;2.45;;;1.92;;
42616;SDS011;28250;52.320;0.360;2023-05-07T12:40:10;2.92;;;2.40;;
42616;SDS011;28250;52.320;0.360;2023-05-07T12:42:37;3.65;;;2.38;;
42616;SDS011;28250;52.320;0.360;2023-05-07T12:45:09;1.92;;;1.70;;
42616;SDS011;28250;52.320;0.360;2023-05-07T12:47:44;5.63;;;2.50;;
42616;SDS011;28250;52.320;0.360;2023-05-07T12:50:11;4.72;;;3.00;;
42616;SDS011;28250;52.320;0.360;2023-05-07T12:52:39;3.33;;;2.88;;
42616;SDS011;28250;52.320;0.360;2023-05-07T12:55:06;3.20;;;2.80;;
42616;SDS011;28250;52.320;0.360;2023-05-07T13:00:36;3.28;;;2.97;;
42616;SDS011;28250;52.320;0.360;2023-05-07T13:05:31;5.25;;;4.20;;
42616;SDS011;28250;52.320;0.360;2023-05-07T13:07:58;5.97;;;3.75;;
42616;SDS011;28250;52.320;0.360;2023-05-07T13:10:24;5.40;;;3.23;;
42616;SDS011;28250;52.320;0.360;2023-05-07T13:12:51;5.55;;;3.42;;
42616;SDS011;28250;52.320;0.360;2023-05-07T13:15:18;3.28;;;2.90;;
42616;SDS011;28250;52.320;0.360;2023-05-07T13:17:44;3.58;;;3.28;;
42616;SDS011;28250;52.320;0.360;2023-05-07T13:20:10;3.28;;;2.88;;
42616;SDS011;28250;52.320;0.360;2023-05-07T13:22:38;3.30;;;2.78;;
42616;SDS011;28250;52.320;0.360;2023-05-07T13:25:05;3.17;;;2.80;;
42616;SDS011;28250;52.320;0.360;2023-05-07T13:27:31;4.45;;;2.78;;
42616;SDS011;28250;52.320;0.360;2023-05-07T13:30:00;3.35;;;2.60;;
42616;SDS011;28250;52.320;0.360;2023-05-07T13:32:26;3.00;;;2.70;;
42616;SDS011;28250;52.320;0.360;2023-05-07T13:34:52;5.03;;;2.88;;
42616;SDS011;28250;52.320;0.360;2023-05-07T13:37:19;3.20;;;2.55;;
42616;SDS011;28250;52.320;0.360;2023-05-07T13:39:45;4.38;;;2.97;;
42616;SDS011;28250;52.320;0.360;2023-05-07T13:42:11;3.03;;;2.60;;
42616;SDS011;28250;52.320;0.360;2023-05-07T13:44:37;2.92;;;2.63;;
42616;SDS011;28250;52.320;0.360;2023-05-07T13:47:03;3.25;;;2.50;;
42616;SDS011;28250;52.320;0.360;2023-05-07T13:49:29;4.07;;;3.15;;
42616;SDS011;28250;52.320;0.360;2023-05-07T13:51:55;3.20;;;2.95;;
42616;SDS011;28250;52.320;0.360;2023-05-07T13:54:21;6.07;;;3.45;;
42616;SDS011;28250;52.320;0.360;2023-05-07T13:56:47;4.18;;;3.58;;
42616;SDS011;28250;52.320;0.360;2023-05-07T13:59:13;5.15;;;3.08;;
42616;SDS011;28250;52.320;0.360;2023-05-07T14:01:40;3.17;;;2.78;;
42616;SDS011;28250;52.320;0.360;2023-05-07T14:04:06;2.70;;;2.47;;
42616;SDS011;28250;52.320;0.360;2023-05-07T14:06:33;2.83;;;2.63;;
42616;SDS011;28250;52.320;0.360;2023-05-07T14:08:58;3.95;;;2.78;;
42616;SDS011;28250;52.320;0.360;2023-05-07T14:11:25;3.37;;;3.00;;
42616;SDS011;28250;52.320;0.360;2023-05-07T14:13:51;3.75;;;3.35;;
42616;SDS011;28250;52.320;0.360;2023-05-07T14:16:17;2.47;;;2.28;;
42616;SDS011;28250;52.320;0.360;2023-05-07T14:18:43;2.80;;;2.53;;
42616;SDS011;28250;52.320;0.360;2023-05-07T14:21:09;3.28;;;2.50;;
42616;SDS011;28250;52.320;0.360;2023-05-07T14:23:35;4.25;;;3.22;;
42616;SDS011;28250;52.320;0.360;2023-05-07T14:26:01;2.88;;;2.50;;
42616;SDS011;28250;52.320;0.360;2023-05-07T14:28:27;3.60;;;2.75;;
42616;SDS011;28250;52.320;0.360;2023-05-07T14:30:53;3.13;;;2.83;;
42616;SDS011;28250;52.320;0.360;2023-05-07T14:33:19;3.87;;;2.97;;
42616;SDS011;28250;52.320;0.360;2023-05-07T14:35:45;3.10;;;2.60;;
42616;SDS011;28250;52.320;0.360;2023-05-07T14:38:14;2.88;;;2.35;;
42616;SDS011;28250;52.320;0.360;2023-05-07T14:40:40;2.58;;;2.13;;
42616;SDS011;28250;52.320;0.360;2023-05-07T14:43:06;2.80;;;2.30;;
42616;SDS011;28250;52.320;0.360;2023-05-07T14:45:32;3.15;;;2.70;;
42616;SDS011;28250;52.320;0.360;2023-05-07T14:47:58;2.97;;;2.60;;
42616;SDS011;28250;52.320;0.360;2023-05-07T14:50:24;3.50;;;2.60;;
42616;SDS011;28250;52.320;0.360;2023-05-07T14:52:51;3.05;;;2.55;;
42616;SDS011;28250;52.320;0.360;2023-05-07T14:55:17;3.90;;;2.85;;
42616;SDS011;28250;52.320;0.360;2023-05-07T14:57:43;3.50;;;2.22;;
42616;SDS011;28250;52.320;0.360;2023-05-07T15:00:09;3.00;;;2.08;;
42616;SDS011;28250;52.320;0.360;2023-05-07T15:05:02;3.97;;;2.67;;
42616;SDS011;28250;52.320;0.360;2023-05-07T15:07:28;5.43;;;2.63;;
42616;SDS011;28250;52.320;0.360;2023-05-07T15:09:54;3.00;;;2.30;;